createdAt,value
2019-02-11T00:00:55.729Z,6.93
2019-02-11T00:03:25.437Z,6.77
2019-02-11T00:05:55.165Z,7.07
2019-02-11T00:08:24.914Z,8.13
2019-02-11T00:10:54.652Z,7.20
2019-02-11T00:13:24.392Z,7.20
2019-02-11T00:15:54.110Z,7.63
2019-02-11T00:18:24.923Z,7.67
2019-02-11T00:20:54.666Z,7.63
2019-02-11T00:23:24.410Z,8.17
2019-02-11T00:25:54.123Z,8.10
2019-02-11T00:28:23.864Z,8.70
2019-02-11T00:30:53.598Z,7.47
2019-02-11T00:33:23.334Z,8.53
2019-02-11T00:35:53.048Z,7.87
2019-02-11T00:38:22.800Z,7.80
2019-02-11T00:40:52.522Z,8.70
2019-02-11T00:43:22.266Z,8.17
2019-02-11T00:45:52.004Z,7.40
2019-02-11T00:48:21.735Z,7.70
2019-02-11T00:50:51.471Z,7.70
2019-02-11T00:53:21.220Z,7.43
2019-02-11T00:55:50.935Z,7.27
2019-02-11T00:58:20.674Z,7.00
2019-02-11T01:00:50.392Z,7.77
2019-02-11T01:03:20.125Z,7.50
2019-02-11T01:05:49.889Z,7.47
2019-02-11T01:08:19.578Z,7.13
2019-02-11T01:10:49.345Z,6.87
2019-02-11T01:13:27.221Z,7.20
2019-02-11T01:15:50.505Z,6.37
2019-02-11T01:18:20.225Z,7.57
2019-02-11T01:20:50.039Z,6.53
2019-02-11T01:23:19.770Z,6.90
2019-02-11T01:25:49.505Z,7.10
2019-02-11T01:28:19.227Z,6.67
2019-02-11T01:30:48.971Z,6.20
2019-02-11T01:33:18.713Z,6.63
2019-02-11T01:35:48.415Z,6.37
2019-02-11T01:38:18.151Z,5.83
2019-02-11T01:40:47.880Z,5.90
2019-02-11T01:43:17.613Z,5.97
2019-02-11T01:45:48.403Z,5.57
2019-02-11T01:48:18.132Z,5.67
2019-02-11T01:50:47.843Z,5.50
2019-02-11T01:53:17.578Z,5.07
2019-02-11T01:55:47.368Z,4.93
2019-02-11T01:58:17.112Z,5.20
2019-02-11T02:00:46.831Z,4.90
2019-02-11T02:03:16.575Z,5.00
2019-02-11T02:05:46.289Z,4.57
2019-02-11T02:08:16.047Z,4.23
2019-02-11T02:10:45.786Z,4.53
2019-02-11T02:13:15.532Z,4.73
2019-02-11T02:15:45.266Z,4.53
2019-02-11T02:18:14.991Z,4.33
2019-02-11T02:20:44.726Z,4.70
2019-02-11T02:23:14.449Z,4.80
2019-02-11T02:25:44.192Z,4.57
2019-02-11T02:28:13.904Z,4.50
2019-02-11T02:30:43.644Z,4.83
2019-02-11T02:33:13.369Z,3.77
2019-02-11T02:35:43.108Z,4.27
2019-02-11T02:38:12.847Z,4.50
2019-02-11T02:40:42.590Z,3.97
2019-02-11T02:43:12.302Z,4.83
2019-02-11T02:45:42.079Z,4.60
2019-02-11T02:48:11.795Z,4.40
2019-02-11T02:50:41.514Z,4.87
2019-02-11T02:53:11.270Z,4.30
2019-02-11T02:55:41.010Z,4.50
2019-02-11T02:58:10.730Z,4.27
2019-02-11T03:00:40.467Z,4.17
2019-02-11T03:03:10.201Z,4.30
2019-02-11T03:05:42.967Z,4.53
2019-02-11T03:08:12.698Z,4.43
2019-02-11T03:10:42.438Z,4.30
2019-02-11T03:13:12.240Z,3.83
2019-02-11T03:15:41.949Z,3.77
2019-02-11T03:18:11.696Z,3.70
2019-02-11T03:20:41.403Z,3.90
2019-02-11T03:23:11.139Z,4.43
2019-02-11T03:25:40.859Z,3.63
2019-02-11T03:28:10.603Z,3.80
2019-02-11T03:30:40.336Z,4.33
2019-02-11T03:33:10.085Z,4.03
2019-02-11T03:35:39.789Z,3.93
2019-02-11T03:38:09.535Z,3.93
2019-02-11T03:40:39.243Z,4.47
2019-02-11T03:43:08.985Z,3.70
2019-02-11T03:45:38.706Z,3.77
2019-02-11T03:48:08.549Z,4.00
2019-02-11T03:50:38.271Z,4.23
2019-02-11T03:53:08.014Z,4.10
2019-02-11T03:55:37.752Z,4.43
2019-02-11T03:58:07.472Z,4.17
2019-02-11T04:00:37.370Z,4.60
2019-02-11T04:03:07.093Z,3.70
2019-02-11T04:05:36.847Z,3.80
2019-02-11T04:08:06.578Z,3.50
2019-02-11T04:10:36.332Z,3.20
2019-02-11T04:13:06.069Z,2.83
2019-02-11T04:15:35.887Z,3.13
2019-02-11T04:18:05.624Z,3.07
2019-02-11T04:20:35.360Z,3.00
2019-02-11T04:23:05.157Z,2.90
2019-02-11T04:25:34.892Z,3.03
2019-02-11T04:28:04.604Z,2.50
2019-02-11T04:30:34.350Z,3.43
2019-02-11T04:33:04.095Z,3.20
2019-02-11T04:35:33.834Z,3.00
2019-02-11T04:38:03.557Z,3.17
2019-02-11T04:40:34.270Z,2.83
2019-02-11T04:43:03.997Z,3.20
2019-02-11T04:45:33.732Z,3.33
2019-02-11T04:48:03.447Z,3.00
2019-02-11T04:50:34.212Z,3.10
2019-02-11T04:53:03.925Z,3.03
2019-02-11T04:55:33.706Z,3.50
2019-02-11T04:58:03.423Z,3.23
2019-02-11T05:00:33.144Z,3.40
2019-02-11T05:03:02.897Z,3.13
2019-02-11T05:05:32.609Z,3.27
2019-02-11T05:08:02.361Z,3.50
2019-02-11T05:10:32.100Z,3.40
2019-02-11T05:13:01.893Z,3.40
2019-02-11T05:15:31.585Z,4.10
2019-02-11T05:18:01.333Z,4.53
2019-02-11T05:20:31.056Z,3.27
2019-02-11T05:23:00.851Z,3.60
2019-02-11T05:25:30.581Z,3.50
2019-02-11T05:28:00.332Z,3.70
2019-02-11T05:30:30.089Z,3.43
2019-02-11T05:32:59.845Z,3.57
2019-02-11T05:35:29.551Z,3.20
2019-02-11T05:37:59.371Z,3.23
2019-02-11T05:40:29.102Z,3.70
2019-02-11T05:42:58.835Z,3.10
2019-02-11T05:45:28.581Z,3.27
2019-02-11T05:47:58.310Z,3.20
2019-02-11T05:50:28.081Z,3.23
2019-02-11T05:52:57.797Z,3.40
2019-02-11T05:55:27.558Z,3.47
2019-02-11T05:57:57.278Z,3.30
2019-02-11T06:00:27.024Z,3.27
2019-02-11T06:02:56.750Z,3.93
2019-02-11T06:05:26.481Z,3.70
2019-02-11T06:07:56.266Z,3.70
2019-02-11T06:10:26.033Z,3.57
2019-02-11T06:12:55.758Z,3.80
2019-02-11T06:15:25.521Z,3.37
2019-02-11T06:17:55.267Z,3.57
2019-02-11T06:20:25.024Z,3.60
2019-02-11T06:22:54.786Z,3.43
2019-02-11T06:25:24.541Z,3.77
2019-02-11T06:27:54.279Z,3.77
2019-02-11T06:30:24.052Z,3.30
2019-02-11T06:32:53.767Z,3.83
2019-02-11T06:35:23.526Z,3.37
2019-02-11T06:37:53.271Z,3.70
2019-02-11T06:40:23.016Z,3.57
2019-02-11T06:42:52.747Z,4.13
2019-02-11T06:45:22.492Z,3.87
2019-02-11T06:47:52.235Z,4.17
2019-02-11T06:50:21.966Z,3.97
2019-02-11T06:52:51.723Z,3.87
2019-02-11T06:55:21.443Z,4.47
2019-02-11T06:57:51.192Z,4.00
2019-02-11T07:00:20.924Z,4.00
2019-02-11T07:02:50.666Z,3.90
2019-02-11T07:05:20.387Z,4.30
2019-02-11T07:07:50.136Z,4.07
2019-02-11T07:10:19.860Z,3.97
2019-02-11T07:12:49.613Z,4.57
2019-02-11T07:15:22.063Z,4.30
2019-02-11T07:17:50.886Z,4.97
2019-02-11T07:20:20.611Z,4.33
2019-02-11T07:22:50.340Z,3.93
2019-02-11T07:25:20.089Z,4.40
2019-02-11T07:27:49.813Z,4.50
2019-02-11T07:30:19.568Z,4.33
2019-02-11T07:32:49.275Z,3.90
2019-02-11T07:35:19.036Z,4.40
2019-02-11T07:37:48.778Z,4.03
2019-02-11T07:40:18.534Z,3.97
2019-02-11T07:42:49.923Z,3.93
2019-02-11T07:45:29.840Z,4.53
2019-02-11T07:47:55.552Z,3.93
2019-02-11T07:50:26.378Z,4.73
2019-02-11T07:52:56.107Z,4.67
2019-02-11T07:55:25.871Z,4.43
2019-02-11T07:57:55.630Z,4.27
2019-02-11T08:00:25.462Z,4.70
2019-02-11T08:02:55.198Z,4.80
2019-02-11T08:05:24.927Z,4.37
2019-02-11T08:07:54.677Z,4.70
2019-02-11T08:10:24.393Z,4.57
2019-02-11T08:12:54.135Z,5.17
2019-02-11T08:15:23.866Z,4.90
2019-02-11T08:17:53.624Z,5.00
2019-02-11T08:20:23.356Z,4.80
2019-02-11T08:22:53.126Z,5.10
2019-02-11T08:25:22.889Z,5.40
2019-02-11T08:27:52.616Z,4.93
2019-02-11T08:30:22.366Z,5.07
2019-02-11T08:32:52.104Z,5.23
2019-02-11T08:35:21.845Z,5.63
2019-02-11T08:37:51.573Z,5.20
2019-02-11T08:40:21.338Z,4.90
2019-02-11T08:42:54.025Z,5.47
2019-02-11T08:45:23.895Z,5.03
2019-02-11T08:47:53.621Z,5.40
2019-02-11T08:50:23.369Z,5.23
2019-02-11T08:52:53.139Z,6.03
2019-02-11T08:55:22.878Z,6.03
2019-02-11T08:57:52.618Z,7.20
2019-02-11T09:00:22.351Z,6.47
2019-02-11T09:02:52.194Z,5.77
2019-02-11T09:05:21.926Z,6.10
2019-02-11T09:07:51.679Z,6.90
2019-02-11T09:10:21.419Z,6.70
2019-02-11T09:12:51.209Z,6.87
2019-02-11T09:15:20.951Z,6.40
2019-02-11T09:17:50.725Z,6.17
2019-02-11T09:20:20.461Z,6.90
2019-02-11T09:22:50.216Z,6.47
2019-02-11T09:25:20.018Z,6.43
2019-02-11T09:27:49.752Z,6.60
2019-02-11T09:30:19.498Z,6.43
2019-02-11T09:32:49.344Z,7.13
2019-02-11T09:35:19.155Z,6.70
2019-02-11T09:37:48.903Z,6.00
2019-02-11T09:40:18.639Z,6.87
2019-02-11T09:42:48.377Z,6.20
2019-02-11T09:45:26.254Z,6.67
2019-02-11T09:47:56.015Z,5.80
2019-02-11T09:50:31.702Z,3.73
2019-02-11T09:53:01.805Z,4.00
2019-02-11T09:55:33.402Z,3.53
2019-02-11T09:58:03.272Z,3.83
2019-02-11T10:00:33.002Z,4.70
2019-02-11T10:03:02.758Z,6.30
2019-02-11T10:05:32.511Z,5.33
2019-02-11T10:08:02.244Z,5.40
2019-02-11T10:10:32.088Z,5.63
2019-02-11T10:13:01.826Z,5.90
2019-02-11T10:15:31.581Z,5.50
2019-02-11T10:18:01.314Z,6.07
2019-02-11T10:20:31.047Z,4.90
2019-02-11T10:23:00.800Z,5.50
2019-02-11T10:25:31.091Z,5.20
2019-02-11T10:28:03.732Z,5.43
2019-02-11T10:30:33.469Z,4.77
2019-02-11T10:33:03.219Z,5.03
2019-02-11T10:35:32.987Z,5.00
2019-02-11T10:38:03.184Z,5.27
2019-02-11T10:40:32.948Z,5.43
2019-02-11T10:43:02.689Z,4.57
2019-02-11T10:45:36.691Z,5.67
2019-02-11T10:48:03.873Z,5.60
2019-02-11T10:50:33.646Z,5.27
2019-02-11T10:53:03.381Z,5.03
2019-02-11T10:55:33.192Z,5.50
2019-02-11T10:58:02.963Z,5.57
2019-02-11T11:00:32.925Z,5.10
2019-02-11T11:03:02.734Z,4.80
2019-02-11T11:05:32.452Z,4.80
2019-02-11T11:08:02.185Z,5.17
2019-02-11T11:10:39.402Z,4.63
2019-02-11T11:13:12.121Z,4.70
2019-02-11T11:15:41.865Z,5.67
2019-02-11T11:18:11.593Z,4.90
2019-02-11T11:20:41.429Z,5.00
2019-02-11T11:23:11.169Z,5.10
2019-02-11T11:25:40.927Z,5.27
2019-02-11T11:28:10.692Z,4.30
2019-02-11T11:30:40.427Z,4.03
2019-02-11T11:33:10.178Z,4.23
2019-02-11T11:35:39.913Z,4.47
2019-02-11T11:38:09.699Z,5.10
2019-02-11T11:40:39.432Z,4.07
2019-02-11T11:43:09.177Z,5.37
2019-02-11T11:45:38.899Z,2.83
2019-02-11T11:48:08.655Z,2.90
2019-02-11T11:50:38.390Z,2.70
2019-02-11T11:53:09.100Z,5.50
2019-02-11T11:55:38.849Z,5.13
2019-02-11T11:58:08.712Z,4.40
2019-02-11T12:00:38.431Z,3.30
2019-02-11T12:03:08.201Z,3.47
2019-02-11T12:05:37.974Z,4.40
2019-02-11T12:08:07.704Z,3.83
2019-02-11T12:10:37.544Z,4.10
2019-02-11T12:13:21.571Z,4.43
2019-02-11T12:15:38.937Z,3.43
2019-02-11T12:18:08.664Z,3.70
2019-02-11T12:20:38.403Z,3.80
2019-02-11T12:23:08.154Z,3.93
2019-02-11T12:25:37.883Z,4.30
2019-02-11T12:28:07.649Z,3.83
2019-02-11T12:30:37.400Z,3.57
2019-02-11T12:33:07.146Z,4.03
2019-02-11T12:35:36.944Z,3.43
2019-02-11T12:38:06.664Z,4.43
2019-02-11T12:40:36.527Z,3.93
2019-02-11T12:43:06.237Z,4.40
2019-02-11T12:45:36.139Z,3.93
2019-02-11T12:48:05.855Z,3.53
2019-02-11T12:50:35.609Z,3.67
2019-02-11T12:53:05.349Z,3.40
2019-02-11T12:55:35.170Z,3.13
2019-02-11T12:58:04.912Z,3.30
2019-02-11T13:00:34.684Z,3.20
2019-02-11T13:03:04.595Z,3.40
2019-02-11T13:05:45.260Z,2.93
2019-02-11T13:08:05.846Z,3.20
2019-02-11T13:10:35.606Z,3.27
2019-02-11T13:13:06.741Z,3.90
2019-02-11T13:15:59.041Z,3.00
2019-02-11T13:18:08.545Z,3.20
2019-02-11T13:20:38.413Z,3.20
2019-02-11T13:23:08.132Z,3.43
2019-02-11T13:25:37.913Z,2.97
2019-02-11T13:28:07.627Z,3.07
2019-02-11T13:30:37.423Z,3.00
2019-02-11T13:33:07.234Z,3.10
2019-02-11T13:35:36.979Z,2.93
2019-02-11T13:38:07.782Z,2.87
2019-02-11T13:40:37.575Z,3.07
2019-02-11T13:43:07.370Z,3.20
2019-02-11T13:45:37.124Z,3.00
2019-02-11T13:48:06.885Z,3.20
2019-02-11T13:50:36.660Z,2.83
2019-02-11T13:53:06.391Z,2.93
2019-02-11T13:55:37.131Z,3.00
2019-02-11T13:58:07.525Z,3.17
2019-02-11T14:00:37.289Z,2.83
2019-02-11T14:03:09.967Z,4.20
2019-02-11T14:05:39.788Z,3.53
2019-02-11T14:08:09.550Z,3.70
2019-02-11T14:10:39.340Z,4.57
2019-02-11T14:13:09.121Z,3.70
2019-02-11T14:15:38.865Z,3.40
2019-02-11T14:18:14.252Z,4.47
2019-02-11T14:20:41.861Z,3.37
2019-02-11T14:23:11.665Z,3.80
2019-02-11T14:25:45.918Z,3.70
2019-02-11T14:28:12.928Z,3.53
2019-02-11T14:30:42.655Z,3.17
2019-02-11T14:33:12.456Z,3.43
2019-02-11T14:35:42.380Z,3.50
2019-02-11T14:38:12.353Z,3.30
2019-02-11T14:40:42.326Z,3.90
2019-02-11T14:43:12.240Z,7.63
2019-02-11T14:45:42.036Z,3.40
2019-02-11T14:48:26.904Z,3.77
2019-02-11T14:50:43.488Z,3.50
2019-02-11T14:53:13.298Z,3.43
2019-02-11T14:55:43.222Z,3.43
2019-02-11T14:58:12.959Z,3.43
2019-02-11T15:00:42.762Z,3.50
2019-02-11T15:03:12.512Z,3.63
2019-02-11T15:05:42.255Z,3.50
2019-02-11T15:08:12.032Z,4.53
2019-02-11T15:10:42.649Z,3.93
2019-02-11T15:13:12.515Z,3.47
2019-02-11T15:15:42.298Z,4.20
2019-02-11T15:18:12.998Z,3.60
2019-02-11T15:20:42.755Z,3.73
2019-02-11T15:23:12.478Z,3.90
2019-02-11T15:25:42.231Z,3.57
2019-02-11T15:28:11.995Z,3.63
2019-02-11T15:30:41.764Z,3.73
2019-02-11T15:33:11.494Z,3.87
2019-02-11T15:35:41.283Z,3.37
2019-02-11T15:38:11.001Z,3.80
2019-02-11T15:40:40.871Z,3.77
2019-02-11T15:43:10.619Z,4.43
2019-02-11T15:45:40.349Z,4.93
2019-02-11T15:48:10.102Z,4.00
2019-02-11T15:50:39.923Z,4.20
2019-02-11T15:53:09.690Z,4.50
2019-02-11T15:55:39.433Z,4.40
2019-02-11T15:58:09.180Z,4.33
2019-02-11T16:00:38.927Z,4.07
2019-02-11T16:03:08.670Z,4.37
2019-02-11T16:05:38.426Z,3.87
2019-02-11T16:08:08.183Z,4.70
2019-02-11T16:10:37.915Z,5.03
2019-02-11T16:13:07.693Z,4.83
2019-02-11T16:15:37.438Z,4.80
2019-02-11T16:18:07.208Z,4.77
2019-02-11T16:20:36.956Z,4.33
2019-02-11T16:23:06.727Z,4.53
2019-02-11T16:25:37.552Z,4.40
2019-02-11T16:28:07.288Z,5.13
2019-02-11T16:30:37.064Z,3.80
2019-02-11T16:33:06.794Z,3.70
2019-02-11T16:35:36.549Z,3.87
2019-02-11T16:38:06.299Z,3.67
2019-02-11T16:40:36.039Z,3.63
2019-02-11T16:43:05.833Z,3.67
2019-02-11T16:45:35.592Z,3.30
2019-02-11T16:48:05.508Z,3.43
2019-02-11T16:50:35.337Z,3.97
2019-02-11T16:53:05.068Z,3.43
2019-02-11T16:55:34.802Z,4.07
2019-02-11T16:58:04.549Z,4.00
2019-02-11T17:00:34.294Z,4.40
2019-02-11T17:03:04.041Z,4.03
2019-02-11T17:05:33.797Z,3.83
2019-02-11T17:08:03.537Z,4.27
2019-02-11T17:10:33.303Z,3.67
2019-02-11T17:13:03.048Z,3.57
2019-02-11T17:15:32.795Z,4.10
2019-02-11T17:18:02.557Z,4.17
2019-02-11T17:20:32.300Z,7.17
2019-02-11T17:23:02.061Z,5.57
2019-02-11T17:25:31.845Z,3.77
2019-02-11T17:28:01.520Z,4.27
2019-02-11T17:30:37.002Z,3.63
2019-02-11T17:33:06.755Z,4.33
2019-02-11T17:35:36.498Z,3.70
2019-02-11T17:38:06.315Z,3.83
2019-02-11T17:40:36.062Z,4.13
2019-02-11T17:43:05.815Z,3.43
2019-02-11T17:45:35.549Z,4.13
2019-02-11T17:48:05.378Z,3.43
2019-02-11T17:50:35.120Z,3.93
2019-02-11T17:53:08.270Z,3.87
2019-02-11T17:55:37.997Z,3.93
2019-02-11T17:58:07.782Z,3.63
2019-02-11T18:00:42.379Z,3.70
2019-02-11T18:03:12.140Z,4.60
2019-02-11T18:05:41.888Z,3.57
2019-02-11T18:08:11.841Z,3.90
2019-02-11T18:10:41.598Z,4.03
2019-02-11T18:13:11.367Z,3.43
2019-02-11T18:15:41.133Z,4.07
2019-02-11T18:18:11.343Z,3.83
2019-02-11T18:20:41.258Z,4.30
2019-02-11T18:23:11.093Z,3.87
2019-02-11T18:25:40.924Z,3.27
2019-02-11T18:28:10.703Z,4.23
2019-02-11T18:30:40.511Z,3.87
2019-02-11T18:33:11.489Z,4.00
2019-02-11T18:35:41.216Z,3.93
2019-02-11T18:38:10.971Z,4.30
2019-02-11T18:40:40.765Z,3.87
2019-02-11T18:43:10.509Z,4.30
2019-02-11T18:45:40.352Z,5.23
2019-02-11T18:48:10.214Z,4.50
2019-02-11T18:50:40.120Z,5.13
2019-02-11T18:53:09.941Z,4.17
2019-02-11T18:55:39.702Z,4.23
2019-02-11T18:58:09.434Z,4.47
2019-02-11T19:00:40.155Z,3.70
2019-02-11T19:03:09.917Z,4.00
2019-02-11T19:05:39.675Z,4.33
2019-02-11T19:08:09.452Z,4.87
2019-02-11T19:10:39.199Z,4.50
2019-02-11T19:13:09.120Z,4.30
2019-02-11T19:15:38.871Z,4.17
2019-02-11T19:18:09.521Z,4.10
2019-02-11T19:20:39.257Z,4.37
2019-02-11T19:23:09.111Z,4.53
2019-02-11T19:25:38.854Z,4.07
2019-02-11T19:28:08.587Z,4.23
2019-02-11T19:30:38.359Z,4.13
2019-02-11T19:33:08.143Z,4.07
2019-02-11T19:35:37.859Z,4.10
2019-02-11T19:38:07.652Z,4.33
2019-02-11T19:40:37.376Z,4.47
2019-02-11T19:43:07.156Z,4.10
2019-02-11T19:45:36.997Z,4.03
2019-02-11T19:48:06.925Z,4.43
2019-02-11T19:50:36.841Z,4.27
2019-02-11T19:53:06.747Z,4.27
2019-02-11T19:55:36.568Z,4.30
2019-02-11T19:58:06.340Z,4.50
2019-02-11T20:00:36.172Z,4.33
2019-02-11T20:03:05.966Z,4.50
2019-02-11T20:05:35.794Z,4.37
2019-02-11T20:08:06.621Z,4.93
2019-02-11T20:10:36.558Z,4.33
2019-02-11T20:13:06.364Z,4.07
2019-02-11T20:15:36.147Z,4.17
2019-02-11T20:18:06.012Z,4.50
2019-02-11T20:20:35.868Z,4.80
2019-02-11T20:23:05.630Z,3.90
2019-02-11T20:25:35.360Z,4.57
2019-02-11T20:28:05.196Z,3.73
2019-02-11T20:30:35.035Z,4.00
2019-02-11T20:33:04.860Z,3.93
2019-02-11T20:35:34.630Z,4.57
2019-02-11T20:38:04.355Z,4.30
2019-02-11T20:40:34.139Z,4.10
2019-02-11T20:43:04.131Z,4.40
2019-02-11T20:45:34.010Z,3.80
2019-02-11T20:48:03.801Z,3.90
2019-02-11T20:50:33.727Z,3.50
2019-02-11T20:53:03.551Z,3.97
2019-02-11T20:55:33.306Z,3.73
2019-02-11T20:58:03.084Z,4.80
2019-02-11T21:00:32.877Z,3.47
2019-02-11T21:03:08.523Z,4.73
2019-02-11T21:05:34.404Z,3.50
2019-02-11T21:08:04.134Z,4.17
2019-02-11T21:10:33.891Z,3.90
2019-02-11T21:13:03.644Z,3.27
2019-02-11T21:15:33.409Z,4.10
2019-02-11T21:18:03.164Z,4.33
2019-02-11T21:20:39.100Z,4.27
2019-02-11T21:23:10.271Z,3.97
2019-02-11T21:25:40.049Z,4.23
2019-02-11T21:28:09.763Z,3.70
2019-02-11T21:30:39.596Z,4.00
2019-02-11T21:33:09.352Z,4.00
2019-02-11T21:35:39.122Z,3.83
2019-02-11T21:38:08.898Z,3.20
2019-02-11T21:40:38.659Z,3.23
2019-02-11T21:43:08.418Z,3.80
2019-02-11T21:45:38.145Z,3.50
2019-02-11T21:48:07.881Z,3.63
2019-02-11T21:50:37.617Z,3.43
2019-02-11T21:53:07.399Z,3.40
2019-02-11T21:55:37.125Z,3.70
2019-02-11T21:58:06.882Z,3.63
2019-02-11T22:00:36.633Z,3.50
2019-02-11T22:03:06.394Z,3.13
2019-02-11T22:05:36.139Z,3.33
2019-02-11T22:08:05.956Z,3.43
2019-02-11T22:10:35.678Z,3.43
2019-02-11T22:13:05.913Z,3.80
2019-02-11T22:15:35.670Z,3.10
2019-02-11T22:18:05.409Z,3.80
2019-02-11T22:20:35.162Z,3.50
2019-02-11T22:23:05.914Z,3.33
2019-02-11T22:25:36.728Z,3.70
2019-02-11T22:28:06.497Z,3.67
2019-02-11T22:30:36.249Z,3.97
2019-02-11T22:33:06.017Z,3.63
2019-02-11T22:35:35.807Z,4.10
2019-02-11T22:38:05.540Z,3.53
2019-02-11T22:40:35.279Z,3.77
2019-02-11T22:43:05.250Z,3.37
2019-02-11T22:45:35.090Z,4.10
2019-02-11T22:48:04.845Z,3.43
2019-02-11T22:50:42.850Z,3.53
2019-02-11T22:53:06.026Z,4.07
2019-02-11T22:55:35.788Z,3.63
2019-02-11T22:58:05.504Z,3.77
2019-02-11T23:00:49.138Z,3.70
2019-02-11T23:03:19.016Z,3.67
2019-02-11T23:05:48.771Z,3.70
2019-02-11T23:08:18.608Z,3.40
2019-02-11T23:10:48.389Z,3.80
2019-02-11T23:13:18.158Z,3.73
2019-02-11T23:15:47.895Z,3.63
2019-02-11T23:18:17.625Z,3.67
2019-02-11T23:20:52.191Z,3.70
2019-02-11T23:23:18.902Z,4.00
2019-02-11T23:25:48.815Z,3.47
2019-02-11T23:28:18.554Z,3.83
2019-02-11T23:30:48.285Z,4.20
2019-02-11T23:33:18.059Z,3.70
2019-02-11T23:35:47.808Z,3.93
2019-02-11T23:38:17.632Z,3.60
2019-02-11T23:40:47.429Z,3.97
2019-02-11T23:43:17.298Z,3.87
2019-02-11T23:45:47.029Z,3.80
2019-02-11T23:48:16.841Z,3.70
2019-02-11T23:50:46.585Z,3.87
2019-02-11T23:53:16.324Z,3.97
2019-02-11T23:55:46.130Z,4.10
2019-02-11T23:58:15.882Z,3.33
